Kimberton, PA (19442)

9:14 AM EDT on June 30, 2015 (GMT -0400)
Windgate Farms III | | Change Station
CLOSE
Current Station
Personal Weather Station
Location: Spring City, PA
Elevation: 249 ft
Nearby Weather Stations

Elev 249 ft 40.17 °N, 75.58 °W | Updated 13 minutes ago

Mostly Cloudy
Mostly Cloudy
73.4 °F
Feels Like 73 °F
N
6.3
Wind Variable Wind from SE

Today
High -- | Low -- °F
--% Chance of Precip.
Yesterday
High -- | Low -- °F
Precip. -- in
5:36 AM 8:35 PM
Waxing Gibbous, 97% visible
Pressure 29.95 in
Visibility 10.0 miles
Clouds Mostly Cloudy 3300 ft
Mostly Cloudy 9000 ft
Overcast 11000 ft
Heat Index 73 °F
Dew Point 68 °F
Humidity 82%
Rainfall in
Snow Depth Not available.
UV 1 out of 12
Pollen 2.50 out of 12
Air Quality Not available.
Flu Activity Sporadic
METAR KPTW 301254Z AUTO 00000KT 10SM BKN033 BKN090 OVC110 22/18 A2996 RMK AO2 SLP140 T02170183

More Conditions Fewer Conditions

Pressure 29.95 in
Visibility 10.0 miles
Clouds Mostly Cloudy 3300 ft
Mostly Cloudy 9000 ft
Overcast 11000 ft
Heat Index 73 °F
Dew Point 68 °F
Humidity 82%
Rainfall in
Snow Depth Not available.
UV 1 out of 12
Pollen 2.50 out of 12
Air Quality Not available.
Flu Activity Sporadic
METAR KPTW 301254Z AUTO 00000KT 10SM BKN033 BKN090 OVC110 22/18 A2996 RMK AO2 SLP140 T02170183

More Conditions Fewer Conditions

Nowcast | as of 8:46 am EDT on June 30, 2015

At 844 am EDT...Doppler radar indicated a line of showers...along a line extending from near Moscow to near Fairview hgts moving northeast at 30 mph. Brief heavy downpours are possible across Carbon and Monroe counties along with a clap of thunder. Locations impacted include... Allentown...reading...Lehighton...Mount Pocono...Bethlehem... Emmaus...Wyomissing...Northampton...East Stroudsburg...Tobyhanna... Nazareth...Palmerton...Bangor...Birdsboro...Kutztown...Jim Thorpe... Hamburg...Slatington...Fleetwood and Sinking Spring. Lat...Lon 4057 7602 4065 7598 4074 7576 4091 7599 4101 7573 4105 7577 4110 7575 4112 7564 4123 7554 4125 7516 4124 7514 4115 7515 4114 7509 4108 7503 4110 7498 4099 7513 4095 7512 4013 7584 4049 7643

×

10-Day Weather Forecast

×

Almanac

Astronomy

Jun. 30, 2015 Rise Set
Actual Time
Civil Twilight
Nautical Twilight
Astronomical Twilight
Moon
Length of Visible Light
Length of Day
Tomorrow will be .
, % of the Moon is Illuminated

Today's Extremes

State Highs State Lows

Community

WunderPhotos

Upload Photos

1,833,994 photos uploaded!

WunderBlogs® & News

Nearby

Air Quality

  Air Quality AQ Index Pollutant
Not available.

Snow Depth

Station Depth Elevation

Earthquake Activity

City Distance Mag. Time & Date
Minimum magnitude displayed is 2.5.

Coastal Water Temperatures

Place Temperature

Stations

Nearby Weather Stations

Station Location Temp. Windchill Dew Point Humidity Wind Precip. Elev Updated Type